Time;durP1;ratioP1;P1;durP2;ratioP2;P2;SDS_P1;SDS_P2;PMS_P1;PMS_P2;Temp;Humidity;BMP_temperature;BMP_pressure;BME280_temperature;BME280_humidity;BME280_pressure;Samples;Min_cycle;Max_cycle;Signal;HPM_P1;HPM_P2
2022/05/19 00:02:07;;;;;;;5.25;3.95;;;;;;;15.39;100.00;96906.44;5068416;28;20398;-49
2022/05/19 00:04:37;;;;;;;4.35;3.70;;;;;;;15.14;100.00;96910.88;5068186;28;20068;-50
2022/05/19 00:07:06;;;;;;;6.63;3.72;;;;;;;15.14;100.00;96910.88;5065258;28;20483;-48
2022/05/19 00:09:34;;;;;;;9.38;3.58;;;;;;;15.20;100.00;96903.06;5067658;28;20080;-51
2022/05/19 00:12:06;;;;;;;4.05;3.65;;;;;;;15.17;100.00;96905.22;5064909;28;20068;-50
2022/05/19 00:14:35;;;;;;;7.70;3.70;;;;;;;15.01;100.00;96894.59;5068209;28;20083;-47
2022/05/19 00:17:03;;;;;;;5.13;3.47;;;;;;;14.86;100.00;96903.13;5067026;28;20067;-44
2022/05/19 00:19:32;;;;;;;5.13;4.00;;;;;;;14.96;100.00;96900.34;5068428;28;20048;-45
2022/05/19 00:22:01;;;;;;;5.32;3.75;;;;;;;14.98;100.00;96901.03;5065561;28;20506;-45
2022/05/19 00:24:30;;;;;;;7.60;3.70;;;;;;;14.93;100.00;96893.56;5065507;28;20099;-50
2022/05/19 00:26:58;;;;;;;5.13;3.95;;;;;;;14.91;100.00;96897.38;5067951;28;20071;-52
2022/05/19 00:29:27;;;;;;;4.25;3.85;;;;;;;14.90;100.00;96888.56;5067741;28;20074;-47
2022/05/19 00:31:55;;;;;;;6.53;3.65;;;;;;;14.78;100.00;96889.84;5067997;28;20087;-46
2022/05/19 00:34:24;;;;;;;5.20;3.70;;;;;;;14.73;100.00;96886.84;5052466;28;20060;-44
2022/05/19 00:36:57;;;;;;;4.45;3.60;;;;;;;14.69;100.00;96882.81;5061785;28;20087;-47
2022/05/19 00:39:27;;;;;;;7.85;4.00;;;;;;;14.73;100.00;96870.94;5062231;28;20538;-45
2022/05/19 00:44:38;;;;;;;4.45;3.60;;;;;;;14.75;100.00;96876.06;5061552;28;20068;-46
2022/05/19 00:47:08;;;;;;;5.20;3.85;;;;;;;14.62;100.00;96873.84;5060139;28;20541;-45
2022/05/19 00:49:39;;;;;;;4.63;3.80;;;;;;;14.51;100.00;96876.78;5062742;28;20083;-44
2022/05/19 00:52:11;;;;;;;5.88;3.33;;;;;;;14.59;100.00;96876.81;5064378;28;20957;-46
2022/05/19 00:54:44;;;;;;;5.13;3.90;;;;;;;14.55;100.00;96878.97;5064669;28;20083;-46
2022/05/19 00:57:16;;;;;;;6.18;3.97;;;;;;;14.47;100.00;96878.91;5061040;28;20091;-47
2022/05/19 00:59:48;;;;;;;5.95;3.55;;;;;;;14.55;100.00;96873.66;5063342;28;20090;-45
2022/05/19 01:02:18;;;;;;;5.30;4.07;;;;;;;14.53;100.00;96877.47;5064222;28;20075;-50
2022/05/19 01:04:49;;;;;;;5.10;3.60;;;;;;;14.29;100.00;96878.97;5064040;28;20071;-50
2022/05/19 01:07:21;;;;;;;3.90;3.60;;;;;;;14.31;100.00;96881.47;5067063;28;20057;-47
2022/05/19 01:09:52;;;;;;;5.47;3.80;;;;;;;14.40;100.00;96869.91;5063266;28;20088;-48
2022/05/19 01:12:22;;;;;;;4.93;3.60;;;;;;;14.38;100.00;96878.03;5057310;28;20084;-46
2022/05/19 01:14:50;;;;;;;4.90;3.53;;;;;;;14.43;100.00;96885.50;5061300;28;20064;-50
2022/05/19 01:17:18;;;;;;;4.53;3.70;;;;;;;14.31;100.00;96882.28;5056502;28;20498;-45
2022/05/19 01:19:47;;;;;;;4.45;3.67;;;;;;;14.25;100.00;96873.16;5065582;28;20588;-44
2022/05/19 01:22:20;;;;;;;6.68;4.00;;;;;;;14.28;100.00;96879.97;5061191;28;20068;-49
2022/05/19 01:24:55;;;;;;;6.00;3.78;;;;;;;14.10;100.00;96877.34;5064448;28;20068;-44
2022/05/19 01:27:25;;;;;;;5.93;3.60;;;;;;;14.08;100.00;96870.56;5065922;28;20063;-46
2022/05/19 01:29:54;;;;;;;6.20;3.87;;;;;;;14.07;100.00;96869.72;5061372;28;20064;-45
2022/05/19 01:32:25;;;;;;;5.85;4.20;;;;;;;14.07;100.00;96867.06;5066544;28;20078;-45
2022/05/19 01:34:53;;;;;;;5.32;4.07;;;;;;;13.96;100.00;96868.16;5069119;28;20064;-44
2022/05/19 01:37:22;;;;;;;4.57;3.72;;;;;;;13.83;100.00;96867.72;5058052;28;20067;-45
2022/05/19 01:39:54;;;;;;;6.40;4.03;;;;;;;13.95;100.00;96870.97;5069403;28;20475;-47
2022/05/19 01:42:35;;;;;;;7.47;4.03;;;;;;;13.97;100.00;96861.88;5062850;28;20468;-46
2022/05/19 01:45:11;;;;;;;6.18;4.13;;;;;;;13.96;100.00;96860.19;5064435;28;20083;-51
2022/05/19 01:47:44;;;;;;;4.63;3.83;;;;;;;13.94;100.00;96854.25;5068561;28;20056;-45
2022/05/19 01:50:17;;;;;;;6.47;3.90;;;;;;;13.83;100.00;96857.13;5069233;28;20507;-46
2022/05/19 01:52:48;;;;;;;7.22;3.90;;;;;;;13.75;100.00;96857.06;5068955;28;20064;-45
2022/05/19 01:55:21;;;;;;;4.90;3.80;;;;;;;13.58;100.00;96848.16;5067290;28;20065;-44
2022/05/19 01:57:56;;;;;;;5.75;4.03;;;;;;;13.66;100.00;96856.19;5063530;28;20675;-52
2022/05/19 02:00:26;;;;;;;5.00;3.90;;;;;;;13.59;100.00;96865.72;5050261;28;20080;-50
2022/05/19 02:02:59;;;;;;;5.07;4.15;;;;;;;13.58;100.00;96871.19;5067293;28;20056;-49
2022/05/19 02:05:36;;;;;;;5.68;4.00;;;;;;;13.58;100.00;96864.06;5066606;28;20076;-46
2022/05/19 02:08:07;;;;;;;8.20;4.20;;;;;;;13.62;100.00;96869.88;5066056;28;20076;-46
2022/05/19 02:10:38;;;;;;;5.78;4.07;;;;;;;13.49;100.00;96863.19;5065510;28;20071;-48
2022/05/19 02:13:09;;;;;;;5.55;4.45;;;;;;;13.46;100.00;96871.44;5062983;28;20084;-46
2022/05/19 02:15:42;;;;;;;4.38;3.92;;;;;;;13.37;100.00;96869.69;5067354;28;20055;-48
2022/05/19 02:18:10;;;;;;;5.93;4.00;;;;;;;13.34;100.00;96877.94;5064776;28;20439;-45
2022/05/19 02:20:41;;;;;;;6.43;4.57;;;;;;;13.30;100.00;96877.41;5067643;28;20446;-45
2022/05/19 02:23:11;;;;;;;6.00;4.43;;;;;;;13.24;100.00;96879.81;5063625;28;20075;-49
2022/05/19 02:25:42;;;;;;;6.25;3.90;;;;;;;13.23;100.00;96871.00;5066426;28;20067;-47
2022/05/19 02:28:15;;;;;;;6.78;4.10;;;;;;;13.08;100.00;96883.13;5063802;28;20132;-45
2022/05/19 02:30:44;;;;;;;11.50;4.50;;;;;;;12.95;100.00;96886.13;5066817;28;20073;-49
2022/05/19 02:33:13;;;;;;;5.03;4.20;;;;;;;13.18;100.00;96880.38;5066649;28;20784;-45
2022/05/19 02:35:42;;;;;;;6.97;4.50;;;;;;;13.11;100.00;96887.25;5067951;28;20584;-46
2022/05/19 02:38:11;;;;;;;7.30;4.15;;;;;;;13.17;100.00;96882.19;5065138;28;20063;-45
2022/05/19 02:40:40;;;;;;;7.75;4.53;;;;;;;13.06;100.00;96880.59;5061763;28;20059;-45
2022/05/19 02:43:09;;;;;;;7.40;4.32;;;;;;;13.11;100.00;96882.81;5061683;28;20067;-46
2022/05/19 02:45:39;;;;;;;6.88;4.43;;;;;;;13.07;100.00;96882.28;5068020;28;20087;-46
2022/05/19 02:48:09;;;;;;;5.32;4.13;;;;;;;13.08;100.00;96869.88;5063715;28;20068;-46
2022/05/19 02:50:39;;;;;;;5.28;4.10;;;;;;;13.06;100.00;96882.44;5066018;28;20084;-44
2022/05/19 02:53:08;;;;;;;6.03;4.10;;;;;;;13.06;100.00;96877.13;5069055;28;20572;-45
2022/05/19 02:55:36;;;;;;;5.85;4.30;;;;;;;13.05;100.00;96881.59;5069379;28;20063;-46
2022/05/19 02:58:05;;;;;;;6.43;4.00;;;;;;;13.09;100.00;96881.31;5068615;28;20076;-46
2022/05/19 03:00:33;;;;;;;7.55;3.97;;;;;;;12.91;100.00;96882.13;5069428;28;20084;-48
2022/05/19 03:03:03;;;;;;;6.40;4.30;;;;;;;12.96;100.00;96871.06;5067080;28;20079;-45
2022/05/19 03:05:33;;;;;;;5.03;4.25;;;;;;;12.96;100.00;96879.84;5068983;28;20044;-48
2022/05/19 03:08:05;;;;;;;4.80;4.22;;;;;;;12.79;100.00;96878.81;5060234;28;20053;-48
2022/05/19 03:10:35;;;;;;;5.68;4.32;;;;;;;12.78;100.00;96876.34;5065495;28;20064;-45
2022/05/19 03:13:04;;;;;;;4.93;4.30;;;;;;;12.85;100.00;96874.75;5062547;28;20075;-47
2022/05/19 03:15:33;;;;;;;7.20;4.20;;;;;;;12.85;100.00;96866.81;5061761;28;20088;-49
2022/05/19 03:18:03;;;;;;;17.35;4.18;;;;;;;12.79;100.00;96864.75;5059862;28;20065;-44
2022/05/19 03:20:31;;;;;;;5.40;4.20;;;;;;;12.78;100.00;96871.03;5064360;28;20072;-43
2022/05/19 03:23:00;;;;;;;4.45;4.00;;;;;;;12.75;100.00;96866.88;5065824;28;20574;-51
2022/05/19 03:25:28;;;;;;;6.30;4.00;;;;;;;12.75;100.00;96866.88;5059521;28;20064;-45
2022/05/19 03:27:56;;;;;;;4.55;3.83;;;;;;;12.76;100.00;96867.69;5058990;28;20076;-46
2022/05/19 03:30:24;;;;;;;6.72;4.10;;;;;;;12.81;100.00;96870.75;5065171;28;20087;-45
2022/05/19 03:32:52;;;;;;;7.38;4.30;;;;;;;12.89;100.00;96865.53;5069428;28;20756;-46
2022/05/19 03:35:22;;;;;;;4.18;3.78;;;;;;;12.80;100.00;96874.34;5068363;28;20087;-45
2022/05/19 03:37:51;;;;;;;6.90;4.30;;;;;;;12.86;100.00;96867.66;5065563;28;20045;-44
2022/05/19 03:40:19;;;;;;;6.35;3.80;;;;;;;12.72;100.00;96866.34;5068474;28;20067;-44
2022/05/19 03:42:47;;;;;;;6.85;3.88;;;;;;;12.73;100.00;96865.34;5068748;28;20092;-44
2022/05/19 03:45:15;;;;;;;9.82;3.85;;;;;;;12.69;100.00;96864.81;5068447;28;20305;-45
2022/05/19 03:47:44;;;;;;;6.57;3.55;;;;;;;12.77;100.00;96867.56;5068070;28;20106;-45
2022/05/19 03:50:12;;;;;;;6.63;3.88;;;;;;;12.99;100.00;96862.81;5068326;28;20068;-48
2022/05/19 03:52:43;;;;;;;10.35;3.80;;;;;;;13.03;100.00;96869.47;5068428;28;20056;-46
2022/05/19 03:55:12;;;;;;;;;;;;;;;13.32;100.00;96868.47;5068811;28;20538;-46
2022/05/19 03:57:40;;;;;;;7.25;5.10;;;;;;;14.54;100.00;96865.84;5068405;28;19960;-45
2022/05/19 04:00:10;;;;;;;5.55;4.82;;;;;;;15.52;100.00;96861.63;5068303;28;20064;-45
2022/05/19 04:02:38;;;;;;;5.75;5.15;;;;;;;16.16;100.00;96860.91;5068442;28;20068;-46
2022/05/19 04:05:08;;;;;;;5.40;4.90;;;;;;;16.54;100.00;96868.13;5068440;28;20535;-50
2022/05/19 04:07:37;;;;;;;5.20;4.70;;;;;;;16.77;100.00;96862.09;5067550;28;20072;-46
2022/05/19 04:10:09;;;;;;;5.00;3.97;;;;;;;16.73;100.00;96866.91;5067771;28;20079;-47
2022/05/19 04:12:39;;;;;;;4.57;4.15;;;;;;;16.90;100.00;96872.19;5068367;28;20468;-45
2022/05/19 04:15:09;;;;;;;5.47;3.60;;;;;;;16.76;100.00;96873.75;5068044;28;20099;-45
2022/05/19 04:17:37;;;;;;;4.45;3.72;;;;;;;16.84;100.00;96871.03;5061806;28;20076;-47
2022/05/19 04:20:08;;;;;;;4.43;3.72;;;;;;;16.37;100.00;96871.84;5068246;28;20068;-46
2022/05/19 04:22:37;;;;;;;5.80;4.93;;;;;;;17.56;100.00;96868.94;5062003;28;20456;-47
2022/05/19 04:25:08;;;;;;;6.10;5.50;;;;;;;18.64;84.16;96873.09;5068131;28;20072;-47
2022/05/19 04:27:36;;;;;;;5.20;4.78;;;;;;;18.96;78.24;96876.41;5055970;28;20070;-48
2022/05/19 04:30:06;;;;;;;5.80;4.85;;;;;;;18.83;72.28;96876.25;5067583;28;20072;-47
2022/05/19 04:32:42;;;;;;;5.95;5.32;;;;;;;19.54;66.25;96871.88;5068029;28;20056;-47
2022/05/19 04:35:10;;;;;;;5.10;4.70;;;;;;;19.65;64.73;96875.97;5067783;28;20095;-46
2022/05/19 04:37:39;;;;;;;5.78;4.05;;;;;;;19.07;68.18;96875.94;5067792;28;20064;-46
2022/05/19 04:40:10;;;;;;;5.85;3.90;;;;;;;18.29;75.57;96881.84;5067679;28;20088;-48
2022/05/19 04:42:39;;;;;;;5.45;4.50;;;;;;;17.85;80.22;96883.41;5072025;28;20080;-46
2022/05/19 04:45:09;;;;;;;5.15;4.65;;;;;;;17.43;84.48;96882.03;5071980;28;20463;-47
2022/05/19 04:47:38;;;;;;;6.95;4.80;;;;;;;17.69;85.75;96884.34;5071921;28;20071;-50
2022/05/19 04:50:08;;;;;;;5.28;4.45;;;;;;;17.96;80.00;96879.47;5069205;28;20056;-45
2022/05/19 04:52:36;;;;;;;7.72;4.45;;;;;;;17.94;81.43;96874.31;5071072;28;20523;-45
2022/05/19 04:55:06;;;;;;;6.65;4.80;;;;;;;18.42;77.60;96876.69;5072148;28;20545;-45
2022/05/19 04:57:38;;;;;;;7.57;4.32;;;;;;;18.17;79.81;96876.09;5072110;28;20534;-49
2022/05/19 05:00:08;;;;;;;5.35;4.82;;;;;;;18.20;78.54;96875.72;5071596;28;20507;-48
2022/05/19 05:02:37;;;;;;;8.00;4.68;;;;;;;17.69;81.67;96876.34;5071304;28;20041;-45
2022/05/19 05:05:07;;;;;;;9.02;4.70;;;;;;;18.27;78.32;96882.84;5071764;28;20059;-47
2022/05/19 05:07:35;;;;;;;5.97;4.55;;;;;;;18.63;73.83;96873.28;5070928;28;20071;-48
2022/05/19 05:10:05;;;;;;;4.68;3.97;;;;;;;17.89;78.84;96883.88;5071397;28;20080;-48
2022/05/19 05:12:33;;;;;;;4.40;4.00;;;;;;;18.17;79.73;96882.28;5072218;28;20083;-48
2022/05/19 05:15:03;;;;;;;4.35;3.83;;;;;;;17.99;74.92;96881.78;5071433;28;20479;-48
2022/05/19 05:17:33;;;;;;;7.93;4.35;;;;;;;18.20;73.60;96883.75;5071562;28;20478;-47
2022/05/19 05:20:02;;;;;;;5.40;4.40;;;;;;;18.10;76.74;96881.38;5072666;28;20068;-49
2022/05/19 05:22:34;;;;;;;5.50;3.95;;;;;;;18.32;79.61;96884.16;5064971;28;20060;-51
2022/05/19 05:25:03;;;;;;;4.32;3.65;;;;;;;18.88;71.47;96889.88;5065265;28;20542;-50
2022/05/19 05:27:31;;;;;;;5.55;4.00;;;;;;;18.54;75.13;96893.06;5070880;28;20076;-52
2022/05/19 05:29:59;;;;;;;4.00;3.60;;;;;;;18.61;81.29;96891.31;5073062;28;20060;-44
2022/05/19 05:32:29;;;;;;;5.50;3.83;;;;;;;18.02;81.30;96898.25;5069492;28;20522;-48
2022/05/19 05:34:57;;;;;;;6.90;3.53;;;;;;;18.30;81.75;96902.16;5071052;28;20514;-46
2022/05/19 05:37:25;;;;;;;6.43;3.47;;;;;;;17.72;84.07;96902.66;5070997;28;20062;-47
2022/05/19 05:39:54;;;;;;;5.32;3.63;;;;;;;18.37;83.50;96906.59;5070789;28;20080;-48
2022/05/19 05:42:22;;;;;;;5.35;3.33;;;;;;;18.23;87.46;96913.56;5070809;28;20068;-45
2022/05/19 05:44:50;;;;;;;4.05;3.40;;;;;;;18.24;94.02;96907.25;5070799;28;20072;-45
2022/05/19 05:47:24;;;;;;;6.70;2.70;;;;;;;17.80;93.53;96912.47;5070875;28;20131;-46
2022/05/19 05:49:54;;;;;;;6.13;2.65;;;;;;;18.12;91.44;96913.19;5070716;28;20079;-48
2022/05/19 05:52:23;;;;;;;6.82;2.72;;;;;;;18.15;96.64;96907.50;5069824;28;20059;-46
2022/05/19 05:54:51;;;;;;;8.00;2.53;;;;;;;17.79;100.00;96905.47;5069988;28;20083;-48
2022/05/19 05:57:19;;;;;;;4.00;2.95;;;;;;;17.47;100.00;96917.16;5071015;28;20093;-44
2022/05/19 05:59:47;;;;;;;4.60;2.80;;;;;;;17.41;100.00;96920.53;5069843;28;20064;-48
2022/05/19 06:02:16;;;;;;;5.60;3.08;;;;;;;17.30;100.00;96919.09;5070080;28;20076;-49
2022/05/19 06:04:45;;;;;;;6.57;3.28;;;;;;;17.12;100.00;96915.88;5070302;28;20064;-50
2022/05/19 06:07:14;;;;;;;4.80;3.10;;;;;;;17.07;100.00;96903.09;5070460;28;20072;-50
2022/05/19 06:09:43;;;;;;;7.45;2.90;;;;;;;17.30;100.00;96919.09;5070386;28;20577;-47
2022/05/19 06:12:12;;;;;;;5.72;3.08;;;;;;;17.36;100.00;96914.91;5069933;28;20065;-46
2022/05/19 06:14:40;;;;;;;5.82;3.13;;;;;;;17.39;100.00;96915.38;5070270;28;20564;-46
2022/05/19 06:17:09;;;;;;;5.55;3.40;;;;;;;17.62;100.00;96915.41;5070053;28;20086;-49
2022/05/19 06:19:37;;;;;;;6.60;3.35;;;;;;;17.51;100.00;96913.94;5067501;28;20064;-49
2022/05/19 06:22:05;;;;;;;7.40;3.17;;;;;;;18.25;100.00;96916.06;5069478;28;20150;-47
2022/05/19 06:24:35;;;;;;;7.85;3.45;;;;;;;18.48;100.00;96919.53;5070261;28;20075;-45
2022/05/19 06:27:03;;;;;;;7.37;3.13;;;;;;;17.47;100.00;96922.50;5070233;28;20068;-48
2022/05/19 06:29:32;;;;;;;4.93;3.38;;;;;;;17.61;100.00;96919.06;5069267;28;20064;-47
2022/05/19 06:32:00;;;;;;;6.78;3.20;;;;;;;18.17;100.00;96918.81;5069943;28;20064;-48
2022/05/19 06:34:28;;;;;;;6.57;3.20;;;;;;;18.27;100.00;96909.56;5069822;28;20458;-47
2022/05/19 06:36:57;;;;;;;7.70;3.97;;;;;;;18.07;100.00;96919.09;5069927;28;20084;-45
2022/05/19 06:39:25;;;;;;;8.13;4.00;;;;;;;17.72;100.00;96917.81;5069772;28;20073;-47
2022/05/19 06:42:03;;;;;;;7.38;3.60;;;;;;;18.03;100.00;96918.63;5069905;28;20076;-45
2022/05/19 06:44:33;;;;;;;4.95;4.00;;;;;;;18.02;100.00;96916.09;5069735;28;20086;-48
2022/05/19 06:47:03;;;;;;;6.18;3.78;;;;;;;18.47;100.00;96917.84;5070118;28;20071;-48
2022/05/19 06:49:32;;;;;;;6.20;3.67;;;;;;;18.36;100.00;96914.81;5069589;28;20059;-50
2022/05/19 06:52:00;;;;;;;6.05;3.63;;;;;;;18.44;100.00;96920.06;5070149;28;20359;-48
2022/05/19 06:54:28;;;;;;;6.38;3.53;;;;;;;18.52;100.00;96924.50;5070373;28;20083;-46
2022/05/19 06:57:01;;;;;;;5.35;3.70;;;;;;;18.64;100.00;96923.00;5065911;28;20068;-45
2022/05/19 06:59:29;;;;;;;5.35;3.72;;;;;;;18.80;100.00;96917.53;5068697;28;20082;-47
2022/05/19 07:01:57;;;;;;;6.07;3.95;;;;;;;19.49;100.00;96913.63;5069439;28;20067;-48
2022/05/19 07:04:25;;;;;;;7.00;3.95;;;;;;;19.65;100.00;96903.53;5068877;28;20060;-49
2022/05/19 07:06:53;;;;;;;6.28;3.90;;;;;;;18.87;100.00;96909.59;5069680;28;20076;-49
2022/05/19 07:09:28;;;;;;;6.10;3.70;;;;;;;19.03;100.00;96914.75;5069074;28;20087;-50
2022/05/19 07:11:59;;;;;;;6.82;4.07;;;;;;;18.76;100.00;96912.75;5069940;28;20071;-52
2022/05/19 07:14:27;;;;;;;5.43;3.83;;;;;;;19.44;100.00;96911.50;5069642;28;20068;-45
2022/05/19 07:16:55;;;;;;;7.88;4.05;;;;;;;19.54;100.00;96917.38;5069126;28;20072;-48
2022/05/19 07:22:16;;;;;;;7.43;4.00;;;;;;;19.60;100.00;96911.28;5057561;28;20067;-46
2022/05/19 07:24:50;;;;;;;7.72;4.30;;;;;;;19.77;100.00;96916.41;5069188;28;20084;-51
2022/05/19 07:27:21;;;;;;;5.45;4.22;;;;;;;20.24;100.00;96904.25;5071067;28;20083;-47
2022/05/19 07:29:49;;;;;;;5.28;3.85;;;;;;;19.89;100.00;96907.69;5066678;28;20452;-49
2022/05/19 07:32:20;;;;;;;9.68;3.90;;;;;;;20.02;100.00;96916.84;5069039;28;20060;-50
2022/05/19 07:34:49;;;;;;;7.07;3.97;;;;;;;20.62;100.00;96913.63;5068652;28;20083;-48
2022/05/19 07:37:17;;;;;;;5.05;4.55;;;;;;;21.02;100.00;96921.88;5069345;28;20780;-48
2022/05/19 07:39:45;;;;;;;6.57;4.30;;;;;;;21.50;100.00;96921.06;5068491;28;20064;-51
2022/05/19 07:42:14;;;;;;;4.88;4.18;;;;;;;21.51;100.00;96912.81;5068050;28;20412;-49
2022/05/19 07:44:43;;;;;;;6.55;4.07;;;;;;;21.28;100.00;96915.78;5068682;28;20546;-52
2022/05/19 07:47:12;;;;;;;7.97;4.90;;;;;;;20.89;100.00;96912.94;5068327;28;20060;-50
2022/05/19 07:49:40;;;;;;;6.97;4.50;;;;;;;21.73;100.00;96907.28;5068247;28;20064;-51
2022/05/19 07:52:09;;;;;;;6.90;4.20;;;;;;;22.00;100.00;96916.19;5068884;28;20075;-51
2022/05/19 07:54:37;;;;;;;6.65;4.10;;;;;;;22.02;100.00;96906.91;5069028;28;20084;-49
2022/05/19 07:57:06;;;;;;;9.13;4.20;;;;;;;21.97;100.00;96905.88;5068328;28;20148;-44
2022/05/19 07:59:35;;;;;;;9.52;4.40;;;;;;;22.10;100.00;96916.63;5068396;28;20060;-50
2022/05/19 08:02:05;;;;;;;6.57;4.80;;;;;;;21.53;100.00;96916.09;5068524;28;20483;-51
2022/05/19 08:04:34;;;;;;;6.55;4.68;;;;;;;22.04;100.00;96914.75;5068737;28;20071;-52
2022/05/19 08:07:02;;;;;;;6.63;4.57;;;;;;;22.68;100.00;96916.00;5068727;28;20099;-50
2022/05/19 08:12:17;;;;;;;7.90;4.43;;;;;;;22.74;100.00;96912.44;5068230;28;20676;-49
2022/05/19 08:17:33;;;;;;;7.53;4.68;;;;;;;22.79;100.00;96911.81;5043698;28;20514;-51
2022/05/19 08:20:01;;;;;;;9.97;5.83;;;;;;;21.99;100.00;96910.00;5068285;28;20082;-52
2022/05/19 08:22:30;;;;;;;6.30;5.30;;;;;;;23.13;100.00;96919.63;5065713;28;20470;-53
2022/05/19 08:24:58;;;;;;;6.10;4.70;;;;;;;23.29;100.00;96910.22;5068315;28;20088;-49
2022/05/19 08:27:26;;;;;;;8.85;5.15;;;;;;;22.81;100.00;96915.94;5068856;28;20526;-51
2022/05/19 08:29:54;;;;;;;7.78;5.30;;;;;;;22.41;100.00;96910.66;5067912;28;20064;-52
2022/05/19 08:32:24;;;;;;;7.38;5.47;;;;;;;22.69;100.00;96909.56;5068886;28;20068;-53
2022/05/19 08:34:54;;;;;;;8.07;5.47;;;;;;;23.09;100.00;96915.69;5068234;28;20132;-53
2022/05/19 08:37:22;;;;;;;9.75;5.50;;;;;;;23.56;100.00;96910.91;5068248;28;20070;-47
2022/05/19 08:39:51;;;;;;;9.93;5.70;;;;;;;22.96;100.00;96911.19;5068315;28;20081;-54
2022/05/19 08:42:21;;;;;;;8.50;5.75;;;;;;;23.14;100.00;96913.19;5068343;28;20099;-49
2022/05/19 08:44:52;;;;;;;7.57;5.93;;;;;;;23.54;100.00;96918.41;5068014;28;20068;-48
2022/05/19 08:47:24;;;;;;;7.75;6.15;;;;;;;23.93;100.00;96908.44;5067861;28;20064;-48
2022/05/19 08:49:59;;;;;;;8.20;6.22;;;;;;;24.00;100.00;96905.69;5067962;28;20068;-51
2022/05/19 08:52:29;;;;;;;9.90;6.30;;;;;;;23.57;100.00;96906.34;5067771;28;20067;-52
2022/05/19 08:54:58;;;;;;;9.43;6.80;;;;;;;23.57;100.00;96909.03;5067786;28;20087;-50
2022/05/19 08:57:28;;;;;;;8.77;6.72;;;;;;;24.00;100.00;96898.44;5068575;28;20577;-52
2022/05/19 09:00:02;;;;;;;8.23;6.95;;;;;;;24.31;100.00;96899.44;5067502;28;20514;-52
2022/05/19 09:02:35;;;;;;;9.85;7.10;;;;;;;24.87;100.00;96899.31;5068181;28;20071;-53
2022/05/19 09:05:14;;;;;;;10.68;6.53;;;;;;;24.55;100.00;96895.09;5067629;28;20063;-49
2022/05/19 09:07:58;;;;;;;10.70;7.53;;;;;;;24.48;100.00;96891.66;5067810;28;20068;-50
2022/05/19 09:10:40;;;;;;;9.88;7.15;;;;;;;24.74;100.00;96893.22;5067298;28;20431;-49
2022/05/19 09:13:13;;;;;;;10.07;7.13;;;;;;;24.94;100.00;96890.31;5062227;28;20068;-49
2022/05/19 09:15:41;;;;;;;8.85;7.22;;;;;;;25.19;100.00;96891.09;5067217;28;20083;-48
2022/05/19 09:18:09;;;;;;;9.40;6.82;;;;;;;24.86;100.00;96889.56;5068027;28;20083;-53
2022/05/19 09:20:42;;;;;;;7.97;6.53;;;;;;;25.89;100.00;96889.75;5067669;28;20415;-46
2022/05/19 09:23:11;;;;;;;7.70;6.90;;;;;;;25.34;100.00;96890.69;5067991;28;20075;-50
2022/05/19 09:25:47;;;;;;;10.43;7.28;;;;;;;24.93;100.00;96886.81;5068229;28;20072;-51
2022/05/19 09:28:16;;;;;;;8.77;6.97;;;;;;;25.52;100.00;96890.66;5069520;28;20065;-49
2022/05/19 09:30:48;;;;;;;10.20;6.47;;;;;;;26.08;100.00;96885.91;5073915;28;20317;-49
2022/05/19 09:33:19;;;;;;;6.65;5.80;;;;;;;25.82;100.00;96895.25;5070905;28;21501;-52
2022/05/19 09:35:51;;;;;;;7.88;5.63;;;;;;;26.32;100.00;96891.34;5070561;28;20076;-49
2022/05/19 09:38:26;;;;;;;12.27;7.53;;;;;;;25.87;100.00;96886.44;5071305;28;20068;-50
2022/05/19 09:41:00;;;;;;;9.25;6.20;;;;;;;26.02;100.00;96889.56;5070029;28;20099;-53
2022/05/19 09:43:36;;;;;;;9.43;6.07;;;;;;;26.01;100.00;96887.88;5064841;28;20064;-49
2022/05/19 09:46:09;;;;;;;12.07;6.20;;;;;;;26.43;100.00;96885.97;5064154;28;20088;-54
2022/05/19 09:48:43;;;;;;;10.15;6.47;;;;;;;26.60;97.20;96891.53;5071223;28;20067;-50
2022/05/19 09:51:15;;;;;;;9.45;6.25;;;;;;;26.19;100.00;96889.72;5070895;28;20071;-50
2022/05/19 09:53:48;;;;;;;7.53;5.63;;;;;;;26.88;100.00;96893.50;5070301;28;20522;-47
2022/05/19 09:56:19;;;;;;;8.68;5.30;;;;;;;26.92;100.00;96886.53;5070688;28;20064;-50
2022/05/19 09:58:48;;;;;;;7.22;5.07;;;;;;;26.73;100.00;96890.44;5069963;28;20067;-49
2022/05/19 10:01:19;;;;;;;8.23;5.50;;;;;;;27.12;96.43;96888.88;5070479;28;20064;-48
2022/05/19 10:03:52;;;;;;;7.65;4.80;;;;;;;26.79;100.00;96886.78;5070849;28;20072;-48
2022/05/19 10:06:23;;;;;;;6.50;5.15;;;;;;;27.34;92.27;96872.78;5070238;28;20272;-45
2022/05/19 10:08:59;;;;;;;6.03;4.82;;;;;;;26.82;100.00;96871.97;5069623;28;20528;-48
2022/05/19 10:11:29;;;;;;;8.27;4.90;;;;;;;26.84;85.86;96872.53;5067141;28;20084;-48
2022/05/19 10:13:58;;;;;;;;;;;;;;;26.53;90.05;96869.16;5071222;28;20068;-46
2022/05/19 10:16:32;;;;;;;8.82;5.07;;;;;;;26.42;90.00;96870.75;5070714;28;20612;-46
2022/05/19 10:19:11;;;;;;;8.77;4.93;;;;;;;26.73;86.80;96863.38;5070156;28;20068;-46
2022/05/19 10:22:03;;;;;;;7.22;5.10;;;;;;;27.55;85.31;96865.06;5070732;28;20083;-45
2022/05/19 10:25:08;;;;;;;7.82;4.97;;;;;;;27.53;88.11;96857.19;5069840;28;21518;-48
2022/05/19 10:33:21;;;;;;;6.72;4.75;;;;;;;27.35;81.71;96857.34;5069955;28;20679;-46
2022/05/19 10:36:02;;;;;;;8.48;4.90;;;;;;;27.13;85.71;96854.50;5069535;28;20440;-45
2022/05/19 10:38:42;;;;;;;8.55;5.05;;;;;;;27.54;86.53;96849.88;5069655;28;20072;-51
2022/05/19 10:41:22;;;;;;;8.65;5.18;;;;;;;27.23;82.86;96846.59;5069370;28;20067;-47
2022/05/19 10:44:03;;;;;;;7.32;4.97;;;;;;;27.79;83.50;96844.09;5069480;28;20091;-46
2022/05/19 10:46:40;;;;;;;6.82;4.45;;;;;;;28.11;83.45;96837.06;5067850;28;20064;-49
2022/05/19 10:49:24;;;;;;;8.77;5.32;;;;;;;28.15;81.99;96835.50;5069009;28;20175;-46
2022/05/19 10:52:00;;;;;;;6.68;4.50;;;;;;;28.53;80.58;96830.38;5065139;28;20121;-48
2022/05/19 10:54:49;;;;;;;8.70;5.20;;;;;;;28.52;83.68;96832.25;5070412;28;20721;-47
2022/05/19 10:57:38;;;;;;;6.63;4.45;;;;;;;28.12;91.06;96830.56;5068336;28;20514;-47
2022/05/19 11:00:17;;;;;;;7.95;5.00;;;;;;;28.36;83.08;96830.38;5069485;28;20056;-51
2022/05/19 11:03:21;;;;;;;5.93;4.82;;;;;;;28.62;84.18;96824.25;5068791;28;20052;-48
2022/05/19 11:05:58;;;;;;;7.72;5.22;;;;;;;28.53;79.94;96827.69;5064829;28;20155;-49
2022/05/19 11:08:37;;;;;;;7.13;4.85;;;;;;;29.10;79.70;96824.63;5069771;28;20077;-47
2022/05/19 11:11:19;;;;;;;8.88;4.97;;;;;;;29.09;68.85;96829.25;5067755;28;20060;-46
2022/05/19 11:14:03;;;;;;;8.18;5.10;;;;;;;29.13;79.24;96828.72;5068174;28;20085;-51
2022/05/19 11:16:39;;;;;;;7.43;5.45;;;;;;;29.25;79.66;96823.97;5069330;28;20071;-53
2022/05/19 11:19:13;;;;;;;6.43;4.93;;;;;;;28.83;79.06;96822.63;5069580;28;20639;-52
2022/05/19 11:21:45;;;;;;;5.82;5.03;;;;;;;29.30;72.34;96815.88;5069876;28;20068;-49
2022/05/19 11:24:21;;;;;;;8.75;5.32;;;;;;;29.57;68.24;96816.72;5068692;28;21518;-55
2022/05/19 11:26:57;;;;;;;11.40;5.00;;;;;;;30.07;79.29;96816.63;5068736;28;20515;-53
2022/05/19 11:29:31;;;;;;;7.35;4.75;;;;;;;29.84;74.18;96813.19;5065276;28;20114;-50
2022/05/19 11:32:04;;;;;;;7.13;4.60;;;;;;;30.20;80.05;96808.84;5063712;28;20056;-49
2022/05/19 11:34:37;;;;;;;8.60;4.93;;;;;;;30.06;84.57;96810.34;5069468;28;20577;-47
2022/05/19 11:37:16;;;;;;;7.53;5.13;;;;;;;30.13;68.87;96810.94;5069773;28;20510;-49
2022/05/19 11:39:55;;;;;;;7.35;5.50;;;;;;;30.36;64.13;96803.53;5068705;28;20068;-49
2022/05/19 11:42:33;;;;;;;10.32;5.00;;;;;;;29.83;79.18;96808.81;5068444;28;20075;-48
2022/05/19 11:45:03;;;;;;;7.43;5.20;;;;;;;30.29;70.67;96803.75;5062346;28;20064;-51
2022/05/19 11:56:10;;;;;;;8.65;5.43;;;;;;;29.87;74.35;96796.34;5051129;28;20060;-50
2022/05/19 11:58:40;;;;;;;6.00;5.20;;;;;;;30.09;70.93;96798.16;5068369;28;20075;-50
2022/05/19 12:01:13;;;;;;;7.10;5.13;;;;;;;30.27;63.59;96790.41;5068076;28;20068;-47
2022/05/19 12:03:45;;;;;;;7.32;5.63;;;;;;;30.33;70.57;96791.25;5069041;28;20069;-45
2022/05/19 12:06:19;;;;;;;6.00;5.00;;;;;;;30.36;69.87;96789.94;5067907;28;20144;-46
2022/05/19 12:08:57;;;;;;;8.55;5.20;;;;;;;30.48;76.88;96798.69;5061770;28;20075;-50
2022/05/19 12:11:28;;;;;;;7.60;5.35;;;;;;;30.64;69.30;96788.72;5068537;28;20439;-51